PIMOHWEATHER Station Historical Data
Daily Summary for August 23, 2020 Units:  Metric    English   Both
Daily Weekly Monthly Yearly
  High: Low: Average:
Temperature: 34.0 °C 26.0 °C 30 °C
Dew Point: 26.0 °C 24.0 °C 25.2 °C
Humidity: 95% 61% 77%
Wind Speed: 32km/h 0km/h 14.8km/h
Wind Gust: 48km/h - -
Wind- - South
Pressure: 1015.9 hPa 1012.4 hPa -
Precipitation: 20.70 mm    
 
 
Tabular Data for August 23, 2020
Time Temperature Dew Point Pressure Wind Wind Speed Wind Gust Humidity Rainfall Rate (Hourly) solar
00:04 29.0 °C 25.0 °C 1015.4 hPa NE 16 km/h 20 km/h 82% 0.00 mm 0.00 W/m2
00:09 28.0 °C 25.0 °C 1015.4 hPa NE 7 km/h 8 km/h 83% 0.00 mm 0.00 W/m2
00:14 28.0 °C 25.0 °C 1015.4 hPa NE 6 km/h 8 km/h 83% 0.00 mm 0.00 W/m2
00:19 29.0 °C 25.0 °C 1015.3 hPa NE 8 km/h 8 km/h 83% 0.00 mm 0.00 W/m2
00:24 29.0 °C 25.0 °C 1015.2 hPa NNE 8 km/h 8 km/h 82% 0.00 mm 0.00 W/m2
00:29 28.0 °C 25.0 °C 1015.4 hPa NNE 8 km/h 8 km/h 83% 0.00 mm 0.00 W/m2
00:39 28.0 °C 25.0 °C 1015.3 hPa NE 3 km/h 4 km/h 83% 0.00 mm 0.00 W/m2
00:44 28.0 °C 25.0 °C 1015.3 hPa NE 8 km/h 8 km/h 83% 0.00 mm 0.00 W/m2
00:49 28.0 °C 25.0 °C 1015.3 hPa NNE 8 km/h 12 km/h 83% 0.00 mm 0.00 W/m2
00:54 28.0 °C 25.0 °C 1015.0 hPa NNE 10 km/h 12 km/h 83% 0.00 mm 0.00 W/m2
00:59 28.0 °C 25.0 °C 1014.9 hPa NNE 8 km/h 12 km/h 83% 0.00 mm 0.00 W/m2
01:04 28.0 °C 25.0 °C 1015.0 hPa NE 5 km/h 8 km/h 83% 0.00 mm 0.00 W/m2
01:09 28.0 °C 25.0 °C 1015.1 hPa NE 5 km/h 8 km/h 83% 0.00 mm 0.00 W/m2
01:14 28.0 °C 25.0 °C 1015.0 hPa NNE 9 km/h 12 km/h 82% 0.00 mm 0.00 W/m2
01:19 28.0 °C 25.0 °C 1014.9 hPa NE 9 km/h 12 km/h 82% 0.00 mm 0.00 W/m2
01:24 28.0 °C 26.0 °C 1015.0 hPa SSW 15 km/h 20 km/h 86% 0.00 mm 0.00 W/m2
01:29 28.0 °C 26.0 °C 1015.3 hPa SW 25 km/h 32 km/h 92% 41.40 mm 0.00 W/m2
01:34 27.0 °C 25.0 °C 1015.4 hPa WSW 11 km/h 20 km/h 95% 91.80 mm 0.00 W/m2
01:39 26.0 °C 25.0 °C 1015.3 hPa NNW 8 km/h 12 km/h 94% 102.59 mm 0.00 W/m2
01:44 26.0 °C 25.0 °C 1015.2 hPa NNW 14 km/h 16 km/h 93% 77.39 mm 0.00 W/m2
01:49 26.0 °C 25.0 °C 1015.2 hPa NNW 14 km/h 16 km/h 94% 30.61 mm 0.00 W/m2
01:54 27.0 °C 25.0 °C 1014.9 hPa NNW 17 km/h 20 km/h 91% 3.61 mm 0.00 W/m2
01:59 27.0 °C 25.0 °C 1014.7 hPa North 13 km/h 16 km/h 91% 1.80 mm 0.00 W/m2
02:04 27.0 °C 25.0 °C 1014.8 hPa North 11 km/h 16 km/h 92% 1.80 mm 0.00 W/m2
02:09 26.0 °C 25.0 °C 1014.7 hPa NNE 8 km/h 12 km/h 93% 1.80 mm 0.00 W/m2
02:14 27.0 °C 25.0 °C 1014.5 hPa NNE 4 km/h 4 km/h 93% 0.00 mm 0.00 W/m2
02:24 27.0 °C 25.0 °C 1014.4 hPa North 5 km/h 8 km/h 92% 0.00 mm 0.00 W/m2
02:29 27.0 °C 26.0 °C 1014.4 hPa NNE 9 km/h 12 km/h 92% 0.00 mm 0.00 W/m2
02:34 27.0 °C 26.0 °C 1014.5 hPa NE 8 km/h 12 km/h 92% 0.00 mm 0.00 W/m2
02:39 27.0 °C 25.0 °C 1014.4 hPa NE 6 km/h 8 km/h 91% 0.00 mm 0.00 W/m2
02:44 27.0 °C 25.0 °C 1014.2 hPa NNE 15 km/h 16 km/h 91% 0.00 mm 0.00 W/m2
02:49 27.0 °C 26.0 °C 1014.1 hPa North 11 km/h 12 km/h 92% 0.00 mm 0.00 W/m2
02:54 27.0 °C 26.0 °C 1014.1 hPa NNE 12 km/h 12 km/h 92% 0.00 mm 0.00 W/m2
02:59 27.0 °C 26.0 °C 1014.1 hPa NNE 8 km/h 8 km/h 92% 0.00 mm 0.00 W/m2
03:04 27.0 °C 26.0 °C 1013.9 hPa NE 8 km/h 8 km/h 92% 0.00 mm 0.00 W/m2
03:09 27.0 °C 26.0 °C 1013.9 hPa NNE 11 km/h 12 km/h 92% 0.00 mm 0.00 W/m2
03:14 27.0 °C 26.0 °C 1013.8 hPa NNE 10 km/h 12 km/h 92% 0.00 mm 0.00 W/m2
03:19 27.0 °C 25.0 °C 1013.6 hPa NNE 10 km/h 12 km/h 92% 0.00 mm 0.00 W/m2
03:24 27.0 °C 25.0 °C 1013.6 hPa NNE 9 km/h 12 km/h 92% 0.00 mm 0.00 W/m2
03:29 27.0 °C 25.0 °C 1013.8 hPa NNE 9 km/h 12 km/h 91% 0.00 mm 0.00 W/m2
03:34 27.0 °C 25.0 °C 1013.6 hPa NE 9 km/h 12 km/h 91% 0.00 mm 0.00 W/m2
03:39 27.0 °C 25.0 °C 1013.8 hPa NE 5 km/h 8 km/h 91% 0.00 mm 0.00 W/m2
03:44 27.0 °C 25.0 °C 1013.8 hPa NE 5 km/h 8 km/h 91% 0.00 mm 0.00 W/m2
03:49 27.0 °C 25.0 °C 1013.8 hPa NE 8 km/h 12 km/h 90% 0.00 mm 0.00 W/m2
03:54 27.0 °C 25.0 °C 1013.6 hPa NE 9 km/h 12 km/h 90% 0.00 mm 0.00 W/m2
03:58 27.0 °C 25.0 °C 1013.7 hPa NE 5 km/h 8 km/h 90% 0.00 mm 0.00 W/m2
04:09 27.0 °C 25.0 °C 1013.5 hPa NE 5 km/h 8 km/h 91% 0.00 mm 0.00 W/m2
04:14 27.0 °C 25.0 °C 1013.5 hPa NE 5 km/h 8 km/h 91% 0.00 mm 0.00 W/m2
04:19 27.0 °C 25.0 °C 1013.6 hPa NNE 8 km/h 8 km/h 91% 0.00 mm 0.00 W/m2
04:24 27.0 °C 25.0 °C 1013.7 hPa NNE 9 km/h 12 km/h 91% 0.00 mm 0.00 W/m2
04:29 27.0 °C 25.0 °C 1013.9 hPa NNE 5 km/h 8 km/h 90% 0.00 mm 0.00 W/m2
04:34 27.0 °C 25.0 °C 1013.9 hPa NE 6 km/h 8 km/h 90% 0.00 mm 0.00 W/m2
04:39 27.0 °C 25.0 °C 1013.9 hPa NE 7 km/h 8 km/h 91% 0.00 mm 0.00 W/m2
04:44 27.0 °C 25.0 °C 1013.9 hPa Calm     91% 0.00 mm 0.00 W/m2
04:49 27.0 °C 25.0 °C 1013.7 hPa NE 4 km/h 4 km/h 92% 0.00 mm 0.00 W/m2
04:54 27.0 °C 25.0 °C 1013.8 hPa NE 1 km/h 4 km/h 91% 0.00 mm 0.00 W/m2
04:59 27.0 °C 25.0 °C 1013.9 hPa NE 3 km/h 4 km/h 91% 0.00 mm 0.00 W/m2
05:04 26.0 °C 25.0 °C 1013.9 hPa NE 1 km/h 4 km/h 91% 0.00 mm 0.00 W/m2
05:09 26.0 °C 25.0 °C 1014.0 hPa Calm     92% 0.00 mm 0.00 W/m2
05:14 26.0 °C 25.0 °C 1013.9 hPa Calm     92% 0.00 mm 0.00 W/m2
05:19 26.0 °C 25.0 °C 1013.9 hPa NE 1 km/h 4 km/h 92% 0.00 mm 0.00 W/m2
05:24 26.0 °C 25.0 °C 1014.0 hPa NE 1 km/h 4 km/h 92% 0.00 mm 0.00 W/m2
05:29 26.0 °C 25.0 °C 1013.9 hPa Calm     92% 0.00 mm 0.00 W/m2
05:34 26.0 °C 25.0 °C 1014.0 hPa Calm     92% 0.00 mm 0.00 W/m2
05:39 26.0 °C 25.0 °C 1014.0 hPa NE 4 km/h 8 km/h 92% 0.00 mm 0.36 W/m2
05:43 26.0 °C 25.0 °C 1013.9 hPa NE 5 km/h 8 km/h 91% 0.00 mm 0.85 W/m2
05:54 26.0 °C 25.0 °C 1014.2 hPa NE 4 km/h 4 km/h 91% 0.00 mm 7.70 W/m2
05:59 27.0 °C 25.0 °C 1014.2 hPa NE 4 km/h 4 km/h 90% 0.00 mm 12.97 W/m2
06:04 27.0 °C 25.0 °C 1014.2 hPa Calm     90% 0.00 mm 19.08 W/m2
06:09 27.0 °C 25.0 °C 1014.3 hPa NE 5 km/h 8 km/h 90% 0.00 mm 26.42 W/m2
06:14 27.0 °C 25.0 °C 1014.3 hPa NE 8 km/h 8 km/h 89% 0.00 mm 32.05 W/m2
06:19 27.0 °C 25.0 °C 1014.3 hPa ENE 1 km/h 4 km/h 89% 0.00 mm 40.73 W/m2
06:24 27.0 °C 25.0 °C 1014.5 hPa ENE 3 km/h 4 km/h 89% 0.00 mm 46.36 W/m2
06:29 27.0 °C 25.0 °C 1014.5 hPa Calm     88% 0.00 mm 52.85 W/m2
06:34 27.0 °C 25.0 °C 1014.5 hPa Calm   4 km/h 88% 0.00 mm 55.41 W/m2
06:39 28.0 °C 25.0 °C 1014.7 hPa ENE 8 km/h 8 km/h 87% 0.00 mm 68.02 W/m2
06:44 28.0 °C 25.0 °C 1014.6 hPa East 4 km/h 4 km/h 86% 0.00 mm 77.19 W/m2
06:49 28.0 °C 25.0 °C 1014.6 hPa ENE 6 km/h 8 km/h 85% 0.00 mm 110.59 W/m2
06:54 29.0 °C 25.0 °C 1014.5 hPa ENE 5 km/h 8 km/h 82% 0.00 mm 114.51 W/m2
06:59 29.0 °C 25.0 °C 1014.6 hPa East 3 km/h 4 km/h 82% 0.00 mm 124.90 W/m2
07:04 29.0 °C 25.0 °C 1014.6 hPa East 3 km/h 4 km/h 81% 0.00 mm 140.93 W/m2
07:09 29.0 °C 25.0 °C 1014.6 hPa NE 9 km/h 12 km/h 80% 0.00 mm 162.22 W/m2
07:14 29.0 °C 25.0 °C 1014.7 hPa NE 6 km/h 8 km/h 78% 0.00 mm 166.99 W/m2
07:19 30.0 °C 25.0 °C 1014.9 hPa ENE 3 km/h 4 km/h 76% 0.00 mm 206.01 W/m2
07:24 30.0 °C 25.0 °C 1014.6 hPa ENE 9 km/h 12 km/h 76% 0.00 mm 215.92 W/m2
07:29 30.0 °C 25.0 °C 1014.8 hPa NNE 5 km/h 8 km/h 76% 0.00 mm 229.01 W/m2
07:34 30.0 °C 25.0 °C 1015.0 hPa NE 7 km/h 8 km/h 74% 0.00 mm 268.03 W/m2
07:39 30.0 °C 25.0 °C 1015.0 hPa NNE 4 km/h 4 km/h 74% 0.00 mm 287.98 W/m2
07:44 30.0 °C 25.0 °C 1015.0 hPa NNE 11 km/h 16 km/h 75% 0.00 mm 320.52 W/m2
07:49 30.0 °C 25.0 °C 1015.1 hPa NNW 10 km/h 12 km/h 75% 0.00 mm 340.95 W/m2
07:54 30.0 °C 25.0 °C 1015.0 hPa NNW 15 km/h 16 km/h 74% 0.00 mm 359.54 W/m2
07:59 30.0 °C 25.0 °C 1015.0 hPa NNW 14 km/h 16 km/h 75% 0.00 mm 388.66 W/m2
08:04 31.0 °C 25.0 °C 1015.0 hPa NNW 17 km/h 20 km/h 73% 0.00 mm 401.63 W/m2
08:09 30.0 °C 25.0 °C 1015.0 hPa West 8 km/h 8 km/h 73% 0.00 mm 473.20 W/m2
08:14 31.0 °C 25.0 °C 1015.0 hPa SW 7 km/h 12 km/h 71% 0.00 mm 567.40 W/m2
08:19 31.0 °C 25.0 °C 1015.1 hPa NNW 10 km/h 16 km/h 71% 0.00 mm 621.59 W/m2
08:24 31.0 °C 25.0 °C 1015.1 hPa NW 16 km/h 20 km/h 72% 0.00 mm 372.15 W/m2
08:29 30.0 °C 25.0 °C 1015.2 hPa NNW 12 km/h 16 km/h 73% 0.00 mm 697.07 W/m2
08:34 31.0 °C 25.0 °C 1015.0 hPa NNW 16 km/h 20 km/h 72% 0.00 mm 745.64 W/m2
08:39 31.0 °C 25.0 °C 1015.2 hPa NNW 15 km/h 20 km/h 71% 0.00 mm 778.18 W/m2
08:44 31.0 °C 25.0 °C 1015.2 hPa NW 15 km/h 20 km/h 70% 0.00 mm 766.07 W/m2
08:49 31.0 °C 25.0 °C 1015.3 hPa West 13 km/h 16 km/h 70% 0.00 mm 756.04 W/m2
08:54 31.0 °C 25.0 °C 1015.3 hPa NNW 16 km/h 20 km/h 69% 0.00 mm 761.67 W/m2
08:59 31.0 °C 25.0 °C 1015.3 hPa NW 15 km/h 20 km/h 70% 0.00 mm 805.58 W/m2
09:04 31.0 °C 25.0 °C 1015.4 hPa NW 20 km/h 24 km/h 69% 0.00 mm 798.12 W/m2
09:09 31.0 °C 25.0 °C 1015.6 hPa NNW 14 km/h 24 km/h 69% 0.00 mm 782.09 W/m2
09:14 31.0 °C 25.0 °C 1015.6 hPa NNW 17 km/h 20 km/h 69% 0.00 mm 814.27 W/m2
09:19 32.0 °C 25.0 °C 1015.6 hPa WSW 15 km/h 20 km/h 68% 0.00 mm 837.63 W/m2
09:24 32.0 °C 25.0 °C 1015.6 hPa WSW 16 km/h 20 km/h 68% 0.00 mm 823.32 W/m2
09:29 32.0 °C 25.0 °C 1015.6 hPa SW 15 km/h 20 km/h 68% 0.00 mm 861.49 W/m2
09:34 32.0 °C 25.0 °C 1015.6 hPa WSW 19 km/h 24 km/h 67% 0.00 mm 908.34 W/m2
09:39 32.0 °C 25.0 °C 1015.6 hPa WNW 14 km/h 20 km/h 66% 0.00 mm 910.92 W/m2
09:44 32.0 °C 25.0 °C 1015.5 hPa SW 19 km/h 20 km/h 66% 0.00 mm 884.98 W/m2
09:49 32.0 °C 25.0 °C 1015.6 hPa NW 16 km/h 24 km/h 67% 0.00 mm 880.21 W/m2
09:54 32.0 °C 25.0 °C 1015.6 hPa NNW 25 km/h 28 km/h 68% 0.00 mm 896.60 W/m2
09:59 32.0 °C 25.0 °C 1015.5 hPa WNW 21 km/h 28 km/h 66% 0.00 mm 833.72 W/m2
10:04 32.0 °C 25.0 °C 1015.5 hPa WNW 28 km/h 32 km/h 66% 0.00 mm 871.89 W/m2
10:09 32.0 °C 25.0 °C 1015.5 hPa SW 7 km/h 8 km/h 66% 0.00 mm 893.17 W/m2
10:14 32.0 °C 25.0 °C 1015.4 hPa SW 21 km/h 28 km/h 67% 0.00 mm 819.41 W/m2
10:19 31.0 °C 25.0 °C 1015.3 hPa SW 22 km/h 28 km/h 67% 0.00 mm 761.29 W/m2
10:24 32.0 °C 25.0 °C 1015.3 hPa West 19 km/h 20 km/h 67% 0.00 mm 785.15 W/m2
10:29 32.0 °C 25.0 °C 1015.2 hPa SSW 20 km/h 24 km/h 68% 0.00 mm 773.90 W/m2
10:34 32.0 °C 25.0 °C 1015.2 hPa SW 21 km/h 28 km/h 67% 0.00 mm 802.04 W/m2
10:39 32.0 °C 25.0 °C 1015.3 hPa SSW 14 km/h 20 km/h 66% 0.00 mm 816.84 W/m2
10:44 32.0 °C 25.0 °C 1015.2 hPa West 15 km/h 16 km/h 65% 0.00 mm 806.80 W/m2
10:49 33.0 °C 25.0 °C 1015.0 hPa WSW 12 km/h 20 km/h 65% 0.00 mm 846.32 W/m2
10:54 33.0 °C 25.0 °C 1015.2 hPa WSW 23 km/h 28 km/h 66% 0.00 mm 848.03 W/m2
10:59 33.0 °C 25.0 °C 1015.1 hPa NW 14 km/h 20 km/h 65% 0.00 mm 740.50 W/m2
11:04 33.0 °C 25.0 °C 1015.1 hPa WNW 28 km/h 32 km/h 63% 0.00 mm 806.44 W/m2
11:09 33.0 °C 25.0 °C 1014.9 hPa WNW 14 km/h 16 km/h 63% 0.00 mm 772.55 W/m2
11:14 33.0 °C 25.0 °C 1015.0 hPa WNW 17 km/h 20 km/h 63% 0.00 mm 789.43 W/m2
11:19 33.0 °C 25.0 °C 1014.9 hPa WSW 25 km/h 36 km/h 64% 0.00 mm 791.63 W/m2
11:24 32.0 °C 25.0 °C 1014.8 hPa NW 19 km/h 28 km/h 64% 0.00 mm 691.93 W/m2
11:29 32.0 °C 25.0 °C 1014.9 hPa WNW 23 km/h 28 km/h 65% 0.00 mm 670.65 W/m2
11:34 33.0 °C 25.0 °C 1014.9 hPa West 15 km/h 20 km/h 63% 0.00 mm 740.01 W/m2
11:39 33.0 °C 25.0 °C 1014.7 hPa SW 22 km/h 36 km/h 63% 0.00 mm 796.04 W/m2
11:44 33.0 °C 25.0 °C 1014.7 hPa WSW 20 km/h 24 km/h 63% 0.00 mm 823.81 W/m2
11:49 33.0 °C 25.0 °C 1014.8 hPa WNW 17 km/h 24 km/h 62% 0.00 mm 897.09 W/m2
11:54 33.0 °C 25.0 °C 1014.6 hPa NW 19 km/h 28 km/h 61% 0.00 mm 873.24 W/m2
11:59 33.0 °C 24.0 °C 1014.4 hPa SW 25 km/h 32 km/h 62% 0.00 mm 821.97 W/m2
12:04 33.0 °C 24.0 °C 1014.5 hPa NW 15 km/h 20 km/h 61% 0.00 mm 796.90 W/m2
12:09 33.0 °C 25.0 °C 1014.3 hPa SW 26 km/h 32 km/h 62% 0.00 mm 833.72 W/m2
12:14 33.0 °C 24.0 °C 1014.2 hPa West 14 km/h 24 km/h 62% 0.00 mm 769.49 W/m2
12:19 34.0 °C 25.0 °C 1014.1 hPa WSW 22 km/h 28 km/h 62% 0.00 mm 903.09 W/m2
12:24 34.0 °C 25.0 °C 1014.2 hPa SW 29 km/h 36 km/h 65% 0.00 mm 913.61 W/m2
12:29 32.0 °C 25.0 °C 1013.9 hPa SW 26 km/h 32 km/h 66% 0.00 mm 904.43 W/m2
12:34 32.0 °C 25.0 °C 1014.0 hPa SW 27 km/h 36 km/h 65% 0.00 mm 849.38 W/m2
12:39 33.0 °C 25.0 °C 1013.8 hPa WSW 25 km/h 32 km/h 64% 0.00 mm 845.83 W/m2
12:44 32.0 °C 25.0 °C 1013.6 hPa SW 30 km/h 40 km/h 65% 0.00 mm 801.18 W/m2
12:49 33.0 °C 25.0 °C 1013.9 hPa West 12 km/h 24 km/h 65% 0.00 mm 748.70 W/m2
12:54 33.0 °C 26.0 °C 1013.5 hPa SW 26 km/h 36 km/h 65% 0.00 mm 741.72 W/m2
12:59 33.0 °C 25.0 °C 1013.6 hPa WSW 26 km/h 32 km/h 65% 0.00 mm 718.72 W/m2
13:04 33.0 °C 25.0 °C 1013.5 hPa West 23 km/h 28 km/h 65% 0.00 mm 713.95 W/m2
13:09 32.0 °C 25.0 °C 1013.4 hPa SW 26 km/h 32 km/h 65% 0.00 mm 694.50 W/m2
13:14 32.0 °C 25.0 °C 1013.3 hPa WSW 28 km/h 36 km/h 66% 0.00 mm 728.26 W/m2
13:19 33.0 °C 25.0 °C 1013.3 hPa WSW 29 km/h 32 km/h 66% 0.00 mm 717.01 W/m2
13:24 33.0 °C 25.0 °C 1013.3 hPa WSW 21 km/h 32 km/h 64% 0.00 mm 762.64 W/m2
13:29 33.0 °C 26.0 °C 1013.2 hPa SW 25 km/h 28 km/h 65% 0.00 mm 769.49 W/m2
13:34 33.0 °C 26.0 °C 1013.2 hPa WSW 25 km/h 28 km/h 66% 0.00 mm 734.87 W/m2
13:39 33.0 °C 25.0 °C 1013.1 hPa West 15 km/h 20 km/h 64% 0.00 mm 690.58 W/m2
13:44 33.0 °C 25.0 °C 1012.9 hPa SW 18 km/h 28 km/h 64% 0.00 mm 674.56 W/m2
13:49 33.0 °C 25.0 °C 1012.9 hPa SSW 26 km/h 32 km/h 64% 0.00 mm 693.16 W/m2
13:54 33.0 °C 25.0 °C 1012.9 hPa SW 22 km/h 28 km/h 64% 0.00 mm 639.33 W/m2
13:59 33.0 °C 25.0 °C 1012.9 hPa SSW 18 km/h 28 km/h 63% 0.00 mm 610.70 W/m2
14:04 33.0 °C 25.0 °C 1013.0 hPa SW 24 km/h 36 km/h 64% 0.00 mm 602.50 W/m2
14:09 33.0 °C 25.0 °C 1012.9 hPa SW 20 km/h 24 km/h 64% 0.00 mm 596.02 W/m2
14:14 33.0 °C 25.0 °C 1012.8 hPa SW 23 km/h 32 km/h 64% 0.00 mm 646.79 W/m2
14:19 33.0 °C 25.0 °C 1012.6 hPa SW 21 km/h 28 km/h 65% 0.00 mm 648.87 W/m2
14:24 33.0 °C 26.0 °C 1012.7 hPa SW 28 km/h 40 km/h 64% 0.00 mm 623.79 W/m2
14:29 33.0 °C 25.0 °C 1012.7 hPa SW 23 km/h 36 km/h 65% 0.00 mm 623.79 W/m2
14:34 33.0 °C 25.0 °C 1012.7 hPa SW 24 km/h 28 km/h 65% 0.00 mm 623.79 W/m2
14:39 33.0 °C 26.0 °C 1012.7 hPa SSW 27 km/h 36 km/h 66% 0.00 mm 565.68 W/m2
14:44 33.0 °C 25.0 °C 1012.6 hPa SW 19 km/h 24 km/h 66% 0.00 mm 560.06 W/m2
14:49 33.0 °C 26.0 °C 1012.6 hPa SW 23 km/h 32 km/h 68% 0.00 mm 590.39 W/m2
14:54 33.0 °C 26.0 °C 1012.6 hPa SSW 27 km/h 32 km/h 67% 0.00 mm 558.71 W/m2
14:59 33.0 °C 26.0 °C 1012.6 hPa WSW 23 km/h 28 km/h 67% 0.00 mm 510.51 W/m2
15:04 33.0 °C 26.0 °C 1012.6 hPa SW 21 km/h 32 km/h 69% 0.00 mm 504.88 W/m2
15:09 33.0 °C 26.0 °C 1012.6 hPa SW 27 km/h 36 km/h 69% 0.00 mm 506.23 W/m2
15:14 32.0 °C 26.0 °C 1012.6 hPa SSW 27 km/h 36 km/h 70% 0.00 mm 507.08 W/m2
15:19 32.0 °C 26.0 °C 1012.6 hPa SW 24 km/h 32 km/h 70% 0.00 mm 515.77 W/m2
15:24 32.0 °C 26.0 °C 1012.7 hPa SW 26 km/h 36 km/h 70% 0.00 mm 536.08 W/m2
15:29 32.0 °C 26.0 °C 1012.7 hPa SW 31 km/h 44 km/h 69% 0.00 mm 530.08 W/m2
15:34 33.0 °C 26.0 °C 1012.5 hPa SW 29 km/h 40 km/h 68% 0.00 mm 527.02 W/m2
15:39 33.0 °C 26.0 °C 1012.6 hPa WSW 26 km/h 36 km/h 69% 0.00 mm 527.88 W/m2
15:44 33.0 °C 26.0 °C 1012.7 hPa SW 28 km/h 40 km/h 69% 0.00 mm 514.42 W/m2
15:49 32.0 °C 26.0 °C 1012.5 hPa SW 28 km/h 36 km/h 70% 0.00 mm 504.51 W/m2
15:54 32.0 °C 26.0 °C 1012.5 hPa SW 28 km/h 36 km/h 70% 0.00 mm 447.26 W/m2
15:59 33.0 °C 26.0 °C 1012.4 hPa SW 30 km/h 40 km/h 70% 0.00 mm 375.57 W/m2
16:09 32.0 °C 26.0 °C 1012.4 hPa SW 30 km/h 40 km/h 69% 0.00 mm 388.66 W/m2
16:14 32.0 °C 26.0 °C 1012.5 hPa SW 32 km/h 40 km/h 71% 0.00 mm 344.01 W/m2
16:19 32.0 °C 26.0 °C 1012.5 hPa SSW 26 km/h 36 km/h 72% 0.00 mm 267.18 W/m2
16:24 32.0 °C 26.0 °C 1012.5 hPa SW 23 km/h 36 km/h 72% 0.00 mm 280.64 W/m2
16:29 32.0 °C 26.0 °C 1012.6 hPa SW 30 km/h 40 km/h 72% 0.00 mm 277.58 W/m2
16:34 31.0 °C 26.0 °C 1012.7 hPa SW 27 km/h 44 km/h 73% 0.00 mm 239.78 W/m2
16:39 31.0 °C 26.0 °C 1012.7 hPa SW 25 km/h 28 km/h 73% 0.00 mm 205.52 W/m2
16:44 31.0 °C 26.0 °C 1012.7 hPa SW 27 km/h 40 km/h 74% 0.00 mm 143.99 W/m2
16:49 31.0 °C 26.0 °C 1012.6 hPa SW 28 km/h 36 km/h 75% 0.00 mm 109.73 W/m2
16:54 31.0 °C 26.0 °C 1012.6 hPa SW 29 km/h 36 km/h 75% 0.00 mm 87.96 W/m2
16:59 31.0 °C 26.0 °C 1012.9 hPa SW 28 km/h 36 km/h 75% 0.00 mm 96.65 W/m2
17:04 31.0 °C 26.0 °C 1012.8 hPa SW 29 km/h 40 km/h 77% 0.00 mm 71.93 W/m2
17:09 31.0 °C 26.0 °C 1013.0 hPa SW 27 km/h 36 km/h 77% 0.00 mm 57.62 W/m2
17:14 31.0 °C 26.0 °C 1013.1 hPa SW 23 km/h 36 km/h 78% 0.00 mm 45.02 W/m2
17:19 30.0 °C 26.0 °C 1013.1 hPa SW 24 km/h 32 km/h 77% 0.00 mm 41.59 W/m2
17:24 31.0 °C 26.0 °C 1013.2 hPa SW 26 km/h 36 km/h 77% 0.00 mm 35.97 W/m2
17:29 31.0 °C 26.0 °C 1013.1 hPa SW 25 km/h 28 km/h 76% 0.00 mm 32.05 W/m2
17:34 31.0 °C 26.0 °C 1013.1 hPa SW 30 km/h 44 km/h 76% 0.00 mm 27.65 W/m2
17:39 31.0 °C 26.0 °C 1013.2 hPa SW 28 km/h 36 km/h 77% 0.00 mm 25.07 W/m2
17:44 31.0 °C 26.0 °C 1013.5 hPa SW 21 km/h 32 km/h 76% 0.00 mm 21.16 W/m2
17:49 30.0 °C 26.0 °C 1013.6 hPa SW 26 km/h 40 km/h 77% 0.00 mm 19.08 W/m2
17:54 30.0 °C 26.0 °C 1013.6 hPa SW 26 km/h 36 km/h 77% 0.00 mm 16.02 W/m2
17:59 30.0 °C 26.0 °C 1013.7 hPa SW 31 km/h 40 km/h 77% 0.00 mm 12.48 W/m2
18:04 30.0 °C 26.0 °C 1013.7 hPa SW 25 km/h 44 km/h 77% 0.00 mm 8.19 W/m2
18:09 30.0 °C 26.0 °C 1013.7 hPa SW 28 km/h 36 km/h 77% 0.00 mm 3.79 W/m2
18:14 30.0 °C 26.0 °C 1013.8 hPa SW 28 km/h 48 km/h 78% 0.00 mm 1.71 W/m2
18:19 30.0 °C 26.0 °C 1013.7 hPa SW 27 km/h 32 km/h 78% 0.00 mm 0.00 W/m2
18:24 30.0 °C 26.0 °C 1013.7 hPa SW 26 km/h 32 km/h 78% 0.00 mm 0.00 W/m2
18:29 30.0 °C 26.0 °C 1013.8 hPa SW 20 km/h 28 km/h 78% 0.00 mm 0.00 W/m2
18:34 30.0 °C 26.0 °C 1013.8 hPa SW 21 km/h 28 km/h 78% 0.00 mm 0.00 W/m2
18:39 30.0 °C 26.0 °C 1013.8 hPa SW 15 km/h 20 km/h 78% 0.00 mm 0.00 W/m2
18:44 30.0 °C 26.0 °C 1013.9 hPa West 10 km/h 12 km/h 77% 0.00 mm 0.00 W/m2
18:49 30.0 °C 26.0 °C 1014.0 hPa West 18 km/h 24 km/h 76% 0.00 mm 0.00 W/m2
18:54 31.0 °C 25.0 °C 1014.1 hPa WNW 13 km/h 20 km/h 74% 0.00 mm 0.00 W/m2
18:59 31.0 °C 25.0 °C 1014.2 hPa West 12 km/h 16 km/h 73% 0.00 mm 0.00 W/m2
19:04 30.0 °C 25.0 °C 1014.2 hPa West 8 km/h 16 km/h 74% 0.00 mm 0.00 W/m2
19:09 31.0 °C 25.0 °C 1014.0 hPa West 9 km/h 12 km/h 74% 0.00 mm 0.00 W/m2
19:14 31.0 °C 26.0 °C 1014.0 hPa West 13 km/h 24 km/h 75% 0.00 mm 0.00 W/m2
19:19 31.0 °C 26.0 °C 1014.0 hPa WSW 15 km/h 20 km/h 75% 0.00 mm 0.00 W/m2
19:24 30.0 °C 26.0 °C 1014.1 hPa WSW 13 km/h 16 km/h 75% 0.00 mm 0.00 W/m2
19:29 30.0 °C 26.0 °C 1014.2 hPa WSW 16 km/h 24 km/h 76% 0.00 mm 0.00 W/m2
19:34 30.0 °C 26.0 °C 1014.1 hPa SW 12 km/h 16 km/h 76% 0.00 mm 0.00 W/m2
19:39 30.0 °C 26.0 °C 1014.0 hPa West 9 km/h 12 km/h 75% 0.00 mm 0.00 W/m2
19:44 30.0 °C 26.0 °C 1014.2 hPa WSW 15 km/h 20 km/h 75% 0.00 mm 0.00 W/m2
19:49 30.0 °C 25.0 °C 1014.3 hPa NW 10 km/h 20 km/h 75% 0.00 mm 0.00 W/m2
19:54 30.0 °C 25.0 °C 1014.2 hPa WSW 14 km/h 20 km/h 75% 0.00 mm 0.00 W/m2
19:59 30.0 °C 26.0 °C 1014.2 hPa SW 17 km/h 24 km/h 76% 0.00 mm 0.00 W/m2
20:04 30.0 °C 25.0 °C 1014.3 hPa SW 16 km/h 20 km/h 76% 0.00 mm 0.00 W/m2
20:09 30.0 °C 25.0 °C 1014.3 hPa West 10 km/h 16 km/h 76% 0.00 mm 0.00 W/m2
20:14 30.0 °C 25.0 °C 1014.6 hPa NW 8 km/h 8 km/h 76% 0.00 mm 0.00 W/m2
20:18 30.0 °C 25.0 °C 1014.7 hPa WNW 10 km/h 12 km/h 76% 0.00 mm 0.00 W/m2
20:29 30.0 °C 25.0 °C 1014.6 hPa SW 10 km/h 12 km/h 75% 0.00 mm 0.00 W/m2
20:34 30.0 °C 25.0 °C 1014.6 hPa WSW 8 km/h 8 km/h 75% 0.00 mm 0.00 W/m2
20:39 30.0 °C 25.0 °C 1014.7 hPa WSW 10 km/h 12 km/h 76% 0.00 mm 0.00 W/m2
20:44 30.0 °C 25.0 °C 1014.8 hPa West 9 km/h 12 km/h 76% 0.00 mm 0.00 W/m2
20:49 30.0 °C 25.0 °C 1014.9 hPa West 8 km/h 12 km/h 76% 0.00 mm 0.00 W/m2
20:54 30.0 °C 26.0 °C 1014.8 hPa SW 14 km/h 16 km/h 77% 0.00 mm 0.00 W/m2
20:59 30.0 °C 25.0 °C 1014.8 hPa NW 17 km/h 20 km/h 77% 0.00 mm 0.00 W/m2
21:04 30.0 °C 26.0 °C 1014.9 hPa NNW 20 km/h 24 km/h 79% 0.00 mm 0.00 W/m2
21:09 29.0 °C 25.0 °C 1014.9 hPa NNW 19 km/h 20 km/h 79% 0.00 mm 0.00 W/m2
21:14 29.0 °C 25.0 °C 1015.1 hPa NNW 20 km/h 24 km/h 79% 0.00 mm 0.00 W/m2
21:19 29.0 °C 25.0 °C 1015.1 hPa NNW 16 km/h 20 km/h 80% 0.00 mm 0.00 W/m2
21:24 29.0 °C 25.0 °C 1015.2 hPa NNW 15 km/h 20 km/h 80% 0.00 mm 0.00 W/m2
21:29 29.0 °C 25.0 °C 1015.3 hPa NNW 15 km/h 16 km/h 80% 0.00 mm 0.00 W/m2
21:34 29.0 °C 25.0 °C 1015.4 hPa North 10 km/h 12 km/h 80% 0.00 mm 0.00 W/m2
21:39 29.0 °C 25.0 °C 1015.5 hPa NNW 12 km/h 16 km/h 80% 0.00 mm 0.00 W/m2
21:44 29.0 °C 25.0 °C 1015.5 hPa NNW 15 km/h 20 km/h 80% 0.00 mm 0.00 W/m2
21:49 29.0 °C 25.0 °C 1015.5 hPa North 15 km/h 16 km/h 80% 0.00 mm 0.00 W/m2
21:54 29.0 °C 25.0 °C 1015.6 hPa North 15 km/h 16 km/h 80% 0.00 mm 0.00 W/m2
21:59 29.0 °C 25.0 °C 1015.6 hPa North 13 km/h 16 km/h 79% 0.00 mm 0.00 W/m2
22:03 29.0 °C 25.0 °C 1015.7 hPa North 13 km/h 16 km/h 79% 0.00 mm 0.00 W/m2
22:14 29.0 °C 25.0 °C 1015.9 hPa North 18 km/h 20 km/h 78% 0.00 mm 0.00 W/m2
22:19 29.0 °C 25.0 °C 1015.9 hPa NNE 13 km/h 16 km/h 78% 0.00 mm 0.00 W/m2
22:24 29.0 °C 25.0 °C 1015.7 hPa North 11 km/h 12 km/h 78% 0.00 mm 0.00 W/m2
22:29 29.0 °C 25.0 °C 1015.7 hPa NNE 9 km/h 12 km/h 78% 0.00 mm 0.00 W/m2
22:34 29.0 °C 25.0 °C 1015.8 hPa NNE 8 km/h 12 km/h 78% 0.00 mm 0.00 W/m2
22:39 29.0 °C 25.0 °C 1015.7 hPa North 12 km/h 16 km/h 78% 0.00 mm 0.00 W/m2
22:44 29.0 °C 25.0 °C 1015.8 hPa North 11 km/h 16 km/h 78% 0.00 mm 0.00 W/m2
22:49 29.0 °C 25.0 °C 1015.8 hPa NNE 8 km/h 8 km/h 78% 0.00 mm 0.00 W/m2
22:54 29.0 °C 25.0 °C 1015.7 hPa North 12 km/h 16 km/h 78% 0.00 mm 0.00 W/m2
22:59 29.0 °C 25.0 °C 1015.8 hPa NNE 8 km/h 12 km/h 78% 0.00 mm 0.00 W/m2
23:04 29.0 °C 25.0 °C 1015.7 hPa NNW 5 km/h 8 km/h 78% 0.00 mm 0.00 W/m2
23:09 29.0 °C 25.0 °C 1015.4 hPa North 5 km/h 8 km/h 78% 0.00 mm 0.00 W/m2
23:14 29.0 °C 24.0 °C 1015.4 hPa NNE 8 km/h 8 km/h 77% 0.00 mm 0.00 W/m2
23:19 29.0 °C 24.0 °C 1015.2 hPa North 10 km/h 12 km/h 77% 0.00 mm 0.00 W/m2
23:24 29.0 °C 24.0 °C 1015.3 hPa North 10 km/h 12 km/h 77% 0.00 mm 0.00 W/m2
23:29 29.0 °C 24.0 °C 1015.2 hPa NNE 7 km/h 8 km/h 77% 0.00 mm 0.00 W/m2
23:34 29.0 °C 24.0 °C 1015.2 hPa NNE 6 km/h 8 km/h 77% 0.00 mm 0.00 W/m2
23:39 29.0 °C 24.0 °C 1015.1 hPa NNE 1 km/h 4 km/h 77% 0.00 mm 0.00 W/m2
23:44 29.0 °C 24.0 °C 1015.1 hPa NNE 4 km/h 4 km/h 77% 0.00 mm 0.00 W/m2
23:47 29.0 °C 24.0 °C 1015.1 hPa North 4 km/h 4 km/h 77% 0.00 mm 0.00 W/m2
23:59 29.0 °C 24.0 °C 1014.9 hPa NNW 4 km/h 4 km/h 77% 0.00 mm 0.00 W/m2
PIMOHWEATHER Philippines
Compliments of Weather Underground - 2 mb